sensor_id;sensor_type;location;lat;lon;timestamp;P1;durP1;ratioP1;P2;durP2;ratioP2
25237;SDS011;13185;50.872;5.306;2022-07-11T00:00:04;4.82;;;2.60;;
25237;SDS011;13185;50.872;5.306;2022-07-11T00:02:39;4.60;;;2.80;;
25237;SDS011;13185;50.872;5.306;2022-07-11T00:05:06;3.78;;;2.17;;
25237;SDS011;13185;50.872;5.306;2022-07-11T00:07:33;7.25;;;2.67;;
25237;SDS011;13185;50.872;5.306;2022-07-11T00:09:59;10.38;;;2.85;;
25237;SDS011;13185;50.872;5.306;2022-07-11T00:12:24;4.10;;;2.42;;
25237;SDS011;13185;50.872;5.306;2022-07-11T00:14:55;4.28;;;2.30;;
25237;SDS011;13185;50.872;5.306;2022-07-11T00:17:21;6.38;;;2.72;;
25237;SDS011;13185;50.872;5.306;2022-07-11T00:19:46;3.53;;;2.20;;
25237;SDS011;13185;50.872;5.306;2022-07-11T00:22:12;7.13;;;2.85;;
25237;SDS011;13185;50.872;5.306;2022-07-11T00:24:37;4.90;;;2.70;;
25237;SDS011;13185;50.872;5.306;2022-07-11T00:27:03;4.93;;;2.38;;
25237;SDS011;13185;50.872;5.306;2022-07-11T00:29:29;4.00;;;2.38;;
25237;SDS011;13185;50.872;5.306;2022-07-11T00:31:56;5.68;;;2.05;;
25237;SDS011;13185;50.872;5.306;2022-07-11T00:34:22;4.15;;;2.25;;
25237;SDS011;13185;50.872;5.306;2022-07-11T00:36:48;4.40;;;2.30;;
25237;SDS011;13185;50.872;5.306;2022-07-11T00:39:14;5.07;;;2.53;;
25237;SDS011;13185;50.872;5.306;2022-07-11T00:41:39;4.53;;;2.45;;
25237;SDS011;13185;50.872;5.306;2022-07-11T00:44:05;4.47;;;2.10;;
25237;SDS011;13185;50.872;5.306;2022-07-11T00:46:30;5.85;;;2.30;;
25237;SDS011;13185;50.872;5.306;2022-07-11T00:48:56;3.65;;;2.20;;
25237;SDS011;13185;50.872;5.306;2022-07-11T00:51:23;4.05;;;2.00;;
25237;SDS011;13185;50.872;5.306;2022-07-11T00:53:50;3.45;;;2.13;;
25237;SDS011;13185;50.872;5.306;2022-07-11T00:56:22;4.68;;;2.67;;
25237;SDS011;13185;50.872;5.306;2022-07-11T00:58:50;3.90;;;2.92;;
25237;SDS011;13185;50.872;5.306;2022-07-11T01:01:17;4.68;;;2.40;;
25237;SDS011;13185;50.872;5.306;2022-07-11T01:03:43;4.35;;;2.20;;
25237;SDS011;13185;50.872;5.306;2022-07-11T01:06:09;2.65;;;1.95;;
25237;SDS011;13185;50.872;5.306;2022-07-11T01:08:35;3.53;;;2.13;;
25237;SDS011;13185;50.872;5.306;2022-07-11T01:11:02;4.38;;;2.17;;
25237;SDS011;13185;50.872;5.306;2022-07-11T01:13:29;5.05;;;2.38;;
25237;SDS011;13185;50.872;5.306;2022-07-11T01:16:16;3.47;;;2.13;;
25237;SDS011;13185;50.872;5.306;2022-07-11T01:18:44;3.40;;;2.08;;
25237;SDS011;13185;50.872;5.306;2022-07-11T01:23:56;4.38;;;2.20;;
25237;SDS011;13185;50.872;5.306;2022-07-11T01:26:25;3.53;;;2.60;;
25237;SDS011;13185;50.872;5.306;2022-07-11T01:28:51;3.08;;;2.08;;
25237;SDS011;13185;50.872;5.306;2022-07-11T01:31:17;4.63;;;1.88;;
25237;SDS011;13185;50.872;5.306;2022-07-11T01:33:44;5.03;;;2.22;;
25237;SDS011;13185;50.872;5.306;2022-07-11T01:36:09;5.35;;;2.20;;
25237;SDS011;13185;50.872;5.306;2022-07-11T01:38:35;4.63;;;2.25;;
25237;SDS011;13185;50.872;5.306;2022-07-11T01:41:01;4.03;;;2.20;;
25237;SDS011;13185;50.872;5.306;2022-07-11T01:43:27;6.05;;;2.20;;
25237;SDS011;13185;50.872;5.306;2022-07-11T01:45:52;4.88;;;2.70;;
25237;SDS011;13185;50.872;5.306;2022-07-11T01:48:19;6.75;;;2.40;;
25237;SDS011;13185;50.872;5.306;2022-07-11T01:50:45;5.35;;;2.50;;
25237;SDS011;13185;50.872;5.306;2022-07-11T01:53:13;2.78;;;2.50;;
25237;SDS011;13185;50.872;5.306;2022-07-11T01:55:40;12.13;;;2.95;;
25237;SDS011;13185;50.872;5.306;2022-07-11T01:58:05;4.82;;;2.60;;
25237;SDS011;13185;50.872;5.306;2022-07-11T02:00:31;3.92;;;2.30;;
25237;SDS011;13185;50.872;5.306;2022-07-11T02:02:56;4.15;;;2.45;;
25237;SDS011;13185;50.872;5.306;2022-07-11T02:05:22;2.95;;;2.15;;
25237;SDS011;13185;50.872;5.306;2022-07-11T02:07:47;2.30;;;2.10;;
25237;SDS011;13185;50.872;5.306;2022-07-11T02:10:31;3.15;;;2.22;;
25237;SDS011;13185;50.872;5.306;2022-07-11T02:12:57;9.20;;;2.92;;
25237;SDS011;13185;50.872;5.306;2022-07-11T02:15:24;4.88;;;2.70;;
25237;SDS011;13185;50.872;5.306;2022-07-11T02:17:54;3.80;;;2.72;;
25237;SDS011;13185;50.872;5.306;2022-07-11T02:20:20;4.07;;;2.35;;
25237;SDS011;13185;50.872;5.306;2022-07-11T02:22:46;5.28;;;2.95;;
25237;SDS011;13185;50.872;5.306;2022-07-11T02:25:13;4.53;;;2.90;;
25237;SDS011;13185;50.872;5.306;2022-07-11T02:27:39;7.50;;;2.90;;
25237;SDS011;13185;50.872;5.306;2022-07-11T02:30:05;7.65;;;2.83;;
25237;SDS011;13185;50.872;5.306;2022-07-11T02:32:31;6.78;;;3.13;;
25237;SDS011;13185;50.872;5.306;2022-07-11T02:34:56;5.25;;;3.00;;
25237;SDS011;13185;50.872;5.306;2022-07-11T02:37:22;5.40;;;2.75;;
25237;SDS011;13185;50.872;5.306;2022-07-11T02:39:47;5.18;;;2.70;;
25237;SDS011;13185;50.872;5.306;2022-07-11T02:42:13;4.40;;;2.58;;
25237;SDS011;13185;50.872;5.306;2022-07-11T02:44:38;6.43;;;2.88;;
25237;SDS011;13185;50.872;5.306;2022-07-11T02:47:04;4.93;;;3.15;;
25237;SDS011;13185;50.872;5.306;2022-07-11T02:49:30;4.15;;;3.13;;
25237;SDS011;13185;50.872;5.306;2022-07-11T02:51:57;5.93;;;3.45;;
25237;SDS011;13185;50.872;5.306;2022-07-11T02:54:22;4.05;;;2.50;;
25237;SDS011;13185;50.872;5.306;2022-07-11T02:56:48;3.78;;;2.60;;
25237;SDS011;13185;50.872;5.306;2022-07-11T02:59:13;4.90;;;2.47;;
25237;SDS011;13185;50.872;5.306;2022-07-11T03:01:39;5.38;;;2.80;;
25237;SDS011;13185;50.872;5.306;2022-07-11T03:04:09;3.90;;;2.72;;
25237;SDS011;13185;50.872;5.306;2022-07-11T03:06:35;3.17;;;2.80;;
25237;SDS011;13185;50.872;5.306;2022-07-11T03:09:01;4.30;;;2.55;;
25237;SDS011;13185;50.872;5.306;2022-07-11T03:11:27;4.75;;;2.38;;
25237;SDS011;13185;50.872;5.306;2022-07-11T03:13:52;3.47;;;2.05;;
25237;SDS011;13185;50.872;5.306;2022-07-11T03:16:19;4.85;;;2.95;;
25237;SDS011;13185;50.872;5.306;2022-07-11T03:18:44;4.57;;;3.05;;
25237;SDS011;13185;50.872;5.306;2022-07-11T03:21:10;3.55;;;2.70;;
25237;SDS011;13185;50.872;5.306;2022-07-11T03:23:35;4.40;;;2.40;;
25237;SDS011;13185;50.872;5.306;2022-07-11T03:26:01;2.90;;;2.60;;
25237;SDS011;13185;50.872;5.306;2022-07-11T03:28:28;3.47;;;2.45;;
25237;SDS011;13185;50.872;5.306;2022-07-11T03:30:53;3.67;;;2.80;;
25237;SDS011;13185;50.872;5.306;2022-07-11T03:33:19;3.30;;;2.60;;
25237;SDS011;13185;50.872;5.306;2022-07-11T03:35:44;2.83;;;2.63;;
25237;SDS011;13185;50.872;5.306;2022-07-11T03:38:10;5.20;;;2.85;;
25237;SDS011;13185;50.872;5.306;2022-07-11T03:40:36;2.92;;;2.45;;
25237;SDS011;13185;50.872;5.306;2022-07-11T03:43:02;5.43;;;3.13;;
25237;SDS011;13185;50.872;5.306;2022-07-11T03:45:27;3.88;;;3.38;;
25237;SDS011;13185;50.872;5.306;2022-07-11T03:47:53;5.95;;;3.30;;
25237;SDS011;13185;50.872;5.306;2022-07-11T03:50:19;4.15;;;2.75;;
25237;SDS011;13185;50.872;5.306;2022-07-11T03:52:45;5.45;;;3.17;;
25237;SDS011;13185;50.872;5.306;2022-07-11T03:55:10;5.63;;;3.72;;
25237;SDS011;13185;50.872;5.306;2022-07-11T03:57:36;5.85;;;3.58;;
25237;SDS011;13185;50.872;5.306;2022-07-11T04:00:03;5.47;;;3.75;;
25237;SDS011;13185;50.872;5.306;2022-07-11T04:02:31;8.55;;;3.88;;
25237;SDS011;13185;50.872;5.306;2022-07-11T04:04:57;4.38;;;3.17;;
25237;SDS011;13185;50.872;5.306;2022-07-11T04:07:22;4.72;;;3.15;;
25237;SDS011;13185;50.872;5.306;2022-07-11T04:09:48;3.63;;;3.15;;
25237;SDS011;13185;50.872;5.306;2022-07-11T04:12:13;6.60;;;3.15;;
25237;SDS011;13185;50.872;5.306;2022-07-11T04:14:39;5.40;;;3.25;;
25237;SDS011;13185;50.872;5.306;2022-07-11T04:17:04;5.70;;;2.90;;
25237;SDS011;13185;50.872;5.306;2022-07-11T04:19:30;7.75;;;3.38;;
25237;SDS011;13185;50.872;5.306;2022-07-11T04:21:55;4.85;;;3.45;;
25237;SDS011;13185;50.872;5.306;2022-07-11T04:24:21;5.18;;;3.47;;
25237;SDS011;13185;50.872;5.306;2022-07-11T04:26:47;5.50;;;3.40;;
25237;SDS011;13185;50.872;5.306;2022-07-11T04:29:12;8.75;;;4.10;;
25237;SDS011;13185;50.872;5.306;2022-07-11T04:31:38;5.43;;;4.10;;
25237;SDS011;13185;50.872;5.306;2022-07-11T04:34:04;5.63;;;3.67;;
25237;SDS011;13185;50.872;5.306;2022-07-11T04:36:29;5.28;;;3.88;;
25237;SDS011;13185;50.872;5.306;2022-07-11T04:38:55;5.07;;;3.58;;
25237;SDS011;13185;50.872;5.306;2022-07-11T04:41:20;4.53;;;3.80;;
25237;SDS011;13185;50.872;5.306;2022-07-11T04:43:45;7.55;;;4.60;;
25237;SDS011;13185;50.872;5.306;2022-07-11T04:46:11;8.00;;;4.63;;
25237;SDS011;13185;50.872;5.306;2022-07-11T04:48:36;8.52;;;4.88;;
25237;SDS011;13185;50.872;5.306;2022-07-11T04:51:04;6.90;;;4.28;;
25237;SDS011;13185;50.872;5.306;2022-07-11T04:53:30;6.13;;;4.53;;
25237;SDS011;13185;50.872;5.306;2022-07-11T04:55:55;6.78;;;4.70;;
25237;SDS011;13185;50.872;5.306;2022-07-11T04:58:21;6.30;;;4.57;;
25237;SDS011;13185;50.872;5.306;2022-07-11T05:00:46;6.25;;;5.18;;
25237;SDS011;13185;50.872;5.306;2022-07-11T05:03:12;8.20;;;5.25;;
25237;SDS011;13185;50.872;5.306;2022-07-11T05:05:37;6.63;;;5.15;;
25237;SDS011;13185;50.872;5.306;2022-07-11T05:08:03;6.13;;;4.13;;
25237;SDS011;13185;50.872;5.306;2022-07-11T05:10:29;7.50;;;3.97;;
25237;SDS011;13185;50.872;5.306;2022-07-11T05:12:56;6.07;;;4.45;;
25237;SDS011;13185;50.872;5.306;2022-07-11T05:15:22;5.13;;;3.78;;
25237;SDS011;13185;50.872;5.306;2022-07-11T05:17:48;6.43;;;3.65;;
25237;SDS011;13185;50.872;5.306;2022-07-11T05:20:13;9.60;;;4.40;;
25237;SDS011;13185;50.872;5.306;2022-07-11T05:22:39;4.50;;;3.97;;
25237;SDS011;13185;50.872;5.306;2022-07-11T05:25:05;11.40;;;5.25;;
25237;SDS011;13185;50.872;5.306;2022-07-11T05:27:30;5.85;;;4.45;;
25237;SDS011;13185;50.872;5.306;2022-07-11T05:29:56;7.05;;;5.00;;
25237;SDS011;13185;50.872;5.306;2022-07-11T05:32:21;5.88;;;4.13;;
25237;SDS011;13185;50.872;5.306;2022-07-11T05:34:47;7.57;;;4.20;;
25237;SDS011;13185;50.872;5.306;2022-07-11T05:37:12;6.07;;;4.85;;
25237;SDS011;13185;50.872;5.306;2022-07-11T05:39:38;8.23;;;5.05;;
25237;SDS011;13185;50.872;5.306;2022-07-11T05:42:03;8.68;;;5.28;;
25237;SDS011;13185;50.872;5.306;2022-07-11T05:44:29;7.28;;;4.78;;
25237;SDS011;13185;50.872;5.306;2022-07-11T05:47:01;8.70;;;5.22;;
25237;SDS011;13185;50.872;5.306;2022-07-11T05:49:27;11.13;;;5.75;;
25237;SDS011;13185;50.872;5.306;2022-07-11T05:51:55;10.07;;;6.50;;
25237;SDS011;13185;50.872;5.306;2022-07-11T05:54:21;10.70;;;5.95;;
25237;SDS011;13185;50.872;5.306;2022-07-11T05:56:46;9.43;;;6.03;;
25237;SDS011;13185;50.872;5.306;2022-07-11T05:59:12;8.73;;;5.78;;
25237;SDS011;13185;50.872;5.306;2022-07-11T06:01:39;9.13;;;5.90;;
25237;SDS011;13185;50.872;5.306;2022-07-11T06:04:04;8.57;;;6.63;;
25237;SDS011;13185;50.872;5.306;2022-07-11T06:06:30;17.00;;;7.53;;
25237;SDS011;13185;50.872;5.306;2022-07-11T06:08:57;10.32;;;6.55;;
25237;SDS011;13185;50.872;5.306;2022-07-11T06:11:22;9.57;;;6.57;;
25237;SDS011;13185;50.872;5.306;2022-07-11T06:13:48;7.38;;;6.40;;
25237;SDS011;13185;50.872;5.306;2022-07-11T06:16:14;12.02;;;6.70;;
25237;SDS011;13185;50.872;5.306;2022-07-11T06:18:40;8.57;;;6.82;;
25237;SDS011;13185;50.872;5.306;2022-07-11T06:21:06;7.40;;;6.18;;
25237;SDS011;13185;50.872;5.306;2022-07-11T06:23:32;10.32;;;7.25;;
25237;SDS011;13185;50.872;5.306;2022-07-11T06:26:00;8.25;;;6.45;;
25237;SDS011;13185;50.872;5.306;2022-07-11T06:28:26;14.80;;;7.22;;
25237;SDS011;13185;50.872;5.306;2022-07-11T06:30:52;9.82;;;7.35;;
25237;SDS011;13185;50.872;5.306;2022-07-11T06:33:18;11.25;;;6.97;;
25237;SDS011;13185;50.872;5.306;2022-07-11T06:35:45;13.85;;;7.03;;
25237;SDS011;13185;50.872;5.306;2022-07-11T06:38:14;11.60;;;6.72;;
25237;SDS011;13185;50.872;5.306;2022-07-11T06:40:42;10.23;;;6.93;;
25237;SDS011;13185;50.872;5.306;2022-07-11T06:43:10;9.15;;;5.40;;
25237;SDS011;13185;50.872;5.306;2022-07-11T06:45:37;10.98;;;7.20;;
25237;SDS011;13185;50.872;5.306;2022-07-11T06:48:03;9.57;;;5.95;;
25237;SDS011;13185;50.872;5.306;2022-07-11T06:50:30;12.43;;;7.18;;
25237;SDS011;13185;50.872;5.306;2022-07-11T06:52:55;12.02;;;6.43;;
25237;SDS011;13185;50.872;5.306;2022-07-11T06:55:21;8.18;;;5.22;;
25237;SDS011;13185;50.872;5.306;2022-07-11T06:57:47;9.38;;;4.53;;
25237;SDS011;13185;50.872;5.306;2022-07-11T07:00:12;8.15;;;4.35;;
25237;SDS011;13185;50.872;5.306;2022-07-11T07:02:38;13.35;;;5.50;;
25237;SDS011;13185;50.872;5.306;2022-07-11T07:05:05;10.98;;;5.45;;
25237;SDS011;13185;50.872;5.306;2022-07-11T07:07:30;10.98;;;4.68;;
25237;SDS011;13185;50.872;5.306;2022-07-11T07:09:56;7.20;;;4.57;;
25237;SDS011;13185;50.872;5.306;2022-07-11T07:12:22;10.32;;;3.60;;
25237;SDS011;13185;50.872;5.306;2022-07-11T07:14:48;6.75;;;2.95;;
25237;SDS011;13185;50.872;5.306;2022-07-11T07:17:14;5.55;;;2.70;;
25237;SDS011;13185;50.872;5.306;2022-07-11T07:19:39;6.95;;;2.65;;
25237;SDS011;13185;50.872;5.306;2022-07-11T07:22:05;6.03;;;2.90;;
25237;SDS011;13185;50.872;5.306;2022-07-11T07:24:31;5.65;;;2.33;;
25237;SDS011;13185;50.872;5.306;2022-07-11T07:26:57;7.43;;;2.92;;
25237;SDS011;13185;50.872;5.306;2022-07-11T07:29:23;5.93;;;2.78;;
25237;SDS011;13185;50.872;5.306;2022-07-11T07:31:50;9.27;;;3.00;;
25237;SDS011;13185;50.872;5.306;2022-07-11T07:34:18;8.30;;;3.17;;
25237;SDS011;13185;50.872;5.306;2022-07-11T07:36:44;8.50;;;2.72;;
25237;SDS011;13185;50.872;5.306;2022-07-11T07:39:10;6.30;;;2.53;;
25237;SDS011;13185;50.872;5.306;2022-07-11T07:41:36;6.88;;;2.30;;
25237;SDS011;13185;50.872;5.306;2022-07-11T07:44:02;5.38;;;2.72;;
25237;SDS011;13185;50.872;5.306;2022-07-11T07:46:28;5.18;;;2.20;;
25237;SDS011;13185;50.872;5.306;2022-07-11T07:48:53;6.40;;;2.78;;
25237;SDS011;13185;50.872;5.306;2022-07-11T07:51:19;5.10;;;2.83;;
25237;SDS011;13185;50.872;5.306;2022-07-11T07:53:46;5.63;;;2.10;;
25237;SDS011;13185;50.872;5.306;2022-07-11T07:56:12;5.55;;;2.03;;
25237;SDS011;13185;50.872;5.306;2022-07-11T07:58:38;8.63;;;2.92;;
25237;SDS011;13185;50.872;5.306;2022-07-11T08:01:04;7.07;;;3.08;;
25237;SDS011;13185;50.872;5.306;2022-07-11T08:03:49;9.05;;;2.95;;
25237;SDS011;13185;50.872;5.306;2022-07-11T08:06:15;7.30;;;3.47;;
25237;SDS011;13185;50.872;5.306;2022-07-11T08:08:40;4.60;;;2.17;;
25237;SDS011;13185;50.872;5.306;2022-07-11T08:11:06;7.88;;;2.33;;
25237;SDS011;13185;50.872;5.306;2022-07-11T08:13:31;8.13;;;3.22;;
25237;SDS011;13185;50.872;5.306;2022-07-11T08:15:57;7.22;;;2.45;;
25237;SDS011;13185;50.872;5.306;2022-07-11T08:18:23;7.07;;;3.10;;
25237;SDS011;13185;50.872;5.306;2022-07-11T08:20:48;8.05;;;2.70;;
25237;SDS011;13185;50.872;5.306;2022-07-11T08:23:14;9.18;;;4.00;;
25237;SDS011;13185;50.872;5.306;2022-07-11T08:25:39;8.02;;;2.70;;
25237;SDS011;13185;50.872;5.306;2022-07-11T08:28:05;8.65;;;3.05;;
25237;SDS011;13185;50.872;5.306;2022-07-11T08:30:31;6.05;;;2.83;;
25237;SDS011;13185;50.872;5.306;2022-07-11T08:32:57;6.07;;;2.80;;
25237;SDS011;13185;50.872;5.306;2022-07-11T08:35:22;6.60;;;2.80;;
25237;SDS011;13185;50.872;5.306;2022-07-11T08:37:48;7.30;;;2.53;;
25237;SDS011;13185;50.872;5.306;2022-07-11T08:40:14;9.75;;;2.38;;
25237;SDS011;13185;50.872;5.306;2022-07-11T08:42:40;11.48;;;2.70;;
25237;SDS011;13185;50.872;5.306;2022-07-11T08:45:10;6.60;;;2.70;;
25237;SDS011;13185;50.872;5.306;2022-07-11T08:47:36;8.02;;;2.03;;
25237;SDS011;13185;50.872;5.306;2022-07-11T08:50:02;7.18;;;2.40;;
25237;SDS011;13185;50.872;5.306;2022-07-11T08:52:29;6.70;;;1.92;;
25237;SDS011;13185;50.872;5.306;2022-07-11T08:54:56;3.30;;;1.90;;
25237;SDS011;13185;50.872;5.306;2022-07-11T08:57:22;6.20;;;1.77;;
25237;SDS011;13185;50.872;5.306;2022-07-11T08:59:48;4.40;;;1.67;;
25237;SDS011;13185;50.872;5.306;2022-07-11T09:02:17;6.30;;;2.28;;
25237;SDS011;13185;50.872;5.306;2022-07-11T09:04:44;4.60;;;1.90;;
25237;SDS011;13185;50.872;5.306;2022-07-11T09:07:09;5.30;;;2.35;;
25237;SDS011;13185;50.872;5.306;2022-07-11T09:09:35;7.10;;;2.53;;
25237;SDS011;13185;50.872;5.306;2022-07-11T09:12:00;5.28;;;2.40;;
25237;SDS011;13185;50.872;5.306;2022-07-11T09:14:27;4.88;;;2.28;;
25237;SDS011;13185;50.872;5.306;2022-07-11T09:16:58;7.50;;;2.42;;
25237;SDS011;13185;50.872;5.306;2022-07-11T09:19:26;4.40;;;2.58;;
25237;SDS011;13185;50.872;5.306;2022-07-11T09:22:11;6.40;;;1.98;;
25237;SDS011;13185;50.872;5.306;2022-07-11T09:27:46;4.55;;;1.67;;
25237;SDS011;13185;50.872;5.306;2022-07-11T09:30:27;3.88;;;1.60;;
25237;SDS011;13185;50.872;5.306;2022-07-11T09:35:30;5.93;;;2.10;;
25237;SDS011;13185;50.872;5.306;2022-07-11T09:37:58;6.25;;;2.75;;
25237;SDS011;13185;50.872;5.306;2022-07-11T09:40:24;6.93;;;2.40;;
25237;SDS011;13185;50.872;5.306;2022-07-11T09:42:53;8.00;;;2.80;;
25237;SDS011;13185;50.872;5.306;2022-07-11T09:45:20;6.05;;;2.20;;
25237;SDS011;13185;50.872;5.306;2022-07-11T09:47:47;6.40;;;2.78;;
25237;SDS011;13185;50.872;5.306;2022-07-11T09:50:18;6.15;;;2.30;;
25237;SDS011;13185;50.872;5.306;2022-07-11T09:55:39;5.68;;;2.60;;
25237;SDS011;13185;50.872;5.306;2022-07-11T09:58:07;5.07;;;2.80;;
25237;SDS011;13185;50.872;5.306;2022-07-11T10:00:34;5.72;;;2.17;;
25237;SDS011;13185;50.872;5.306;2022-07-11T10:03:00;4.30;;;1.95;;
25237;SDS011;13185;50.872;5.306;2022-07-11T10:05:27;5.07;;;2.03;;
25237;SDS011;13185;50.872;5.306;2022-07-11T10:07:53;6.50;;;1.95;;
25237;SDS011;13185;50.872;5.306;2022-07-11T10:10:20;5.40;;;2.00;;
25237;SDS011;13185;50.872;5.306;2022-07-11T10:12:46;2.40;;;1.67;;
25237;SDS011;13185;50.872;5.306;2022-07-11T10:15:14;3.72;;;1.70;;
25237;SDS011;13185;50.872;5.306;2022-07-11T10:17:57;3.88;;;1.90;;
25237;SDS011;13185;50.872;5.306;2022-07-11T10:20:46;4.82;;;1.90;;
25237;SDS011;13185;50.872;5.306;2022-07-11T10:29:01;2.53;;;1.58;;
25237;SDS011;13185;50.872;5.306;2022-07-11T10:31:32;2.67;;;1.63;;
25237;SDS011;13185;50.872;5.306;2022-07-11T10:34:05;4.38;;;1.83;;
25237;SDS011;13185;50.872;5.306;2022-07-11T10:36:33;3.75;;;1.90;;
25237;SDS011;13185;50.872;5.306;2022-07-11T10:39:22;4.32;;;1.77;;
25237;SDS011;13185;50.872;5.306;2022-07-11T10:41:54;2.65;;;1.80;;
25237;SDS011;13185;50.872;5.306;2022-07-11T10:44:22;4.13;;;1.83;;
25237;SDS011;13185;50.872;5.306;2022-07-11T10:46:48;4.30;;;2.20;;
25237;SDS011;13185;50.872;5.306;2022-07-11T10:59:56;5.53;;;2.00;;
25237;SDS011;13185;50.872;5.306;2022-07-11T11:02:22;3.33;;;1.50;;
25237;SDS011;13185;50.872;5.306;2022-07-11T11:04:49;2.58;;;1.42;;
25237;SDS011;13185;50.872;5.306;2022-07-11T11:07:28;3.70;;;1.50;;
25237;SDS011;13185;50.872;5.306;2022-07-11T11:10:48;2.92;;;1.50;;
25237;SDS011;13185;50.872;5.306;2022-07-11T11:15:55;3.35;;;1.60;;
25237;SDS011;13185;50.872;5.306;2022-07-11T11:23:22;4.10;;;1.42;;
25237;SDS011;13185;50.872;5.306;2022-07-11T11:25:49;4.78;;;1.95;;
25237;SDS011;13185;50.872;5.306;2022-07-11T11:28:19;4.38;;;1.67;;
25237;SDS011;13185;50.872;5.306;2022-07-11T11:30:58;3.47;;;1.10;;
25237;SDS011;13185;50.872;5.306;2022-07-11T11:33:25;2.90;;;1.33;;
25237;SDS011;13185;50.872;5.306;2022-07-11T11:38:27;4.35;;;1.40;;
25237;SDS011;13185;50.872;5.306;2022-07-11T11:40:53;3.75;;;1.60;;
25237;SDS011;13185;50.872;5.306;2022-07-11T11:43:22;3.80;;;0.90;;
25237;SDS011;13185;50.872;5.306;2022-07-11T11:45:51;2.72;;;1.48;;
25237;SDS011;13185;50.872;5.306;2022-07-11T11:51:10;2.53;;;1.90;;
25237;SDS011;13185;50.872;5.306;2022-07-11T11:53:39;3.95;;;2.40;;
25237;SDS011;13185;50.872;5.306;2022-07-11T11:56:14;4.05;;;1.70;;
25237;SDS011;13185;50.872;5.306;2022-07-11T11:58:42;3.60;;;2.40;;
25237;SDS011;13185;50.872;5.306;2022-07-11T12:01:09;6.10;;;3.00;;
25237;SDS011;13185;50.872;5.306;2022-07-11T12:06:22;3.47;;;3.00;;
25237;SDS011;13185;50.872;5.306;2022-07-11T12:09:07;4.28;;;2.50;;
25237;SDS011;13185;50.872;5.306;2022-07-11T12:11:36;5.15;;;3.00;;
25237;SDS011;13185;50.872;5.306;2022-07-11T12:14:03;4.38;;;3.00;;
25237;SDS011;13185;50.872;5.306;2022-07-11T12:16:32;5.32;;;3.17;;
25237;SDS011;13185;50.872;5.306;2022-07-11T12:19:07;3.97;;;3.60;;
25237;SDS011;13185;50.872;5.306;2022-07-11T12:21:37;4.57;;;4.10;;
25237;SDS011;13185;50.872;5.306;2022-07-11T12:24:05;4.05;;;3.63;;
25237;SDS011;13185;50.872;5.306;2022-07-11T12:26:33;3.78;;;3.03;;
25237;SDS011;13185;50.872;5.306;2022-07-11T12:31:45;4.65;;;3.85;;
25237;SDS011;13185;50.872;5.306;2022-07-11T12:34:18;4.20;;;3.80;;
25237;SDS011;13185;50.872;5.306;2022-07-11T12:36:45;5.38;;;3.55;;
25237;SDS011;13185;50.872;5.306;2022-07-11T12:41:49;3.15;;;2.45;;
25237;SDS011;13185;50.872;5.306;2022-07-11T12:44:25;3.72;;;3.42;;
25237;SDS011;13185;50.872;5.306;2022-07-11T12:47:10;4.47;;;4.07;;
25237;SDS011;13185;50.872;5.306;2022-07-11T12:49:36;3.55;;;3.22;;
25237;SDS011;13185;50.872;5.306;2022-07-11T12:52:04;4.72;;;3.85;;
25237;SDS011;13185;50.872;5.306;2022-07-11T12:54:30;3.60;;;3.30;;
25237;SDS011;13185;50.872;5.306;2022-07-11T12:56:59;5.63;;;3.65;;
25237;SDS011;13185;50.872;5.306;2022-07-11T12:59:29;3.92;;;3.55;;
25237;SDS011;13185;50.872;5.306;2022-07-11T13:02:06;2.88;;;2.55;;
25237;SDS011;13185;50.872;5.306;2022-07-11T13:10:16;1.35;;;1.02;;
25237;SDS011;13185;50.872;5.306;2022-07-11T13:12:43;2.13;;;1.17;;
25237;SDS011;13185;50.872;5.306;2022-07-11T13:15:12;2.05;;;1.20;;
25237;SDS011;13185;50.872;5.306;2022-07-11T13:17:44;2.40;;;0.98;;
25237;SDS011;13185;50.872;5.306;2022-07-11T13:20:34;1.98;;;1.20;;
25237;SDS011;13185;50.872;5.306;2022-07-11T13:23:00;1.98;;;0.98;;
25237;SDS011;13185;50.872;5.306;2022-07-11T13:25:25;1.40;;;0.88;;
25237;SDS011;13185;50.872;5.306;2022-07-11T13:27:51;1.35;;;1.08;;
25237;SDS011;13185;50.872;5.306;2022-07-11T13:30:18;1.45;;;0.85;;
25237;SDS011;13185;50.872;5.306;2022-07-11T13:32:50;1.90;;;1.23;;
25237;SDS011;13185;50.872;5.306;2022-07-11T13:35:16;1.38;;;1.10;;
25237;SDS011;13185;50.872;5.306;2022-07-11T13:37:43;1.65;;;1.10;;
25237;SDS011;13185;50.872;5.306;2022-07-11T13:40:10;1.10;;;0.80;;
25237;SDS011;13185;50.872;5.306;2022-07-11T13:42:41;3.08;;;1.20;;
25237;SDS011;13185;50.872;5.306;2022-07-11T13:45:10;1.50;;;0.98;;
25237;SDS011;13185;50.872;5.306;2022-07-11T13:47:35;2.83;;;1.20;;
25237;SDS011;13185;50.872;5.306;2022-07-11T13:50:01;3.70;;;2.15;;
25237;SDS011;13185;50.872;5.306;2022-07-11T13:52:27;1.58;;;1.02;;
25237;SDS011;13185;50.872;5.306;2022-07-11T13:54:53;2.53;;;1.40;;
25237;SDS011;13185;50.872;5.306;2022-07-11T13:57:19;1.77;;;1.35;;
25237;SDS011;13185;50.872;5.306;2022-07-11T13:59:45;4.03;;;1.65;;
25237;SDS011;13185;50.872;5.306;2022-07-11T14:02:11;2.42;;;1.83;;
25237;SDS011;13185;50.872;5.306;2022-07-11T14:04:37;2.92;;;1.38;;
25237;SDS011;13185;50.872;5.306;2022-07-11T14:07:02;1.30;;;1.17;;
25237;SDS011;13185;50.872;5.306;2022-07-11T14:09:28;2.75;;;1.20;;
25237;SDS011;13185;50.872;5.306;2022-07-11T14:11:54;1.98;;;1.10;;
25237;SDS011;13185;50.872;5.306;2022-07-11T14:14:20;1.35;;;0.93;;
25237;SDS011;13185;50.872;5.306;2022-07-11T14:16:46;1.88;;;1.17;;
25237;SDS011;13185;50.872;5.306;2022-07-11T14:19:11;1.60;;;1.20;;
25237;SDS011;13185;50.872;5.306;2022-07-11T14:21:37;1.55;;;1.30;;
25237;SDS011;13185;50.872;5.306;2022-07-11T14:24:03;2.25;;;1.30;;
25237;SDS011;13185;50.872;5.306;2022-07-11T14:26:30;2.28;;;1.15;;
25237;SDS011;13185;50.872;5.306;2022-07-11T14:28:56;5.18;;;1.60;;
25237;SDS011;13185;50.872;5.306;2022-07-11T14:31:22;1.60;;;1.50;;
25237;SDS011;13185;50.872;5.306;2022-07-11T14:33:49;2.05;;;1.60;;
25237;SDS011;13185;50.872;5.306;2022-07-11T14:36:15;2.40;;;2.08;;
25237;SDS011;13185;50.872;5.306;2022-07-11T14:38:41;3.85;;;1.65;;
25237;SDS011;13185;50.872;5.306;2022-07-11T14:41:07;1.73;;;1.30;;
25237;SDS011;13185;50.872;5.306;2022-07-11T14:43:33;1.50;;;1.27;;
25237;SDS011;13185;50.872;5.306;2022-07-11T14:45:59;3.33;;;1.30;;
25237;SDS011;13185;50.872;5.306;2022-07-11T14:48:25;3.17;;;1.20;;
25237;SDS011;13185;50.872;5.306;2022-07-11T14:50:50;2.88;;;1.25;;
25237;SDS011;13185;50.872;5.306;2022-07-11T14:53:16;2.47;;;1.42;;
25237;SDS011;13185;50.872;5.306;2022-07-11T14:55:41;2.58;;;1.50;;
25237;SDS011;13185;50.872;5.306;2022-07-11T14:58:08;1.98;;;1.45;;
25237;SDS011;13185;50.872;5.306;2022-07-11T15:00:33;2.30;;;1.73;;
25237;SDS011;13185;50.872;5.306;2022-07-11T15:02:59;1.95;;;1.38;;
25237;SDS011;13185;50.872;5.306;2022-07-11T15:05:43;1.83;;;1.70;;
25237;SDS011;13185;50.872;5.306;2022-07-11T15:08:08;2.85;;;1.08;;
25237;SDS011;13185;50.872;5.306;2022-07-11T15:10:52;2.60;;;1.80;;
25237;SDS011;13185;50.872;5.306;2022-07-11T15:13:37;3.08;;;1.50;;
25237;SDS011;13185;50.872;5.306;2022-07-11T15:16:02;2.08;;;1.65;;
25237;SDS011;13185;50.872;5.306;2022-07-11T15:18:28;1.60;;;1.50;;
25237;SDS011;13185;50.872;5.306;2022-07-11T15:20:54;2.28;;;1.67;;
25237;SDS011;13185;50.872;5.306;2022-07-11T15:23:20;2.15;;;1.42;;
25237;SDS011;13185;50.872;5.306;2022-07-11T15:25:45;1.45;;;1.25;;
25237;SDS011;13185;50.872;5.306;2022-07-11T15:28:11;1.83;;;1.17;;
25237;SDS011;13185;50.872;5.306;2022-07-11T15:30:36;1.70;;;1.40;;
25237;SDS011;13185;50.872;5.306;2022-07-11T15:33:02;2.00;;;1.60;;
25237;SDS011;13185;50.872;5.306;2022-07-11T15:35:27;3.25;;;1.20;;
25237;SDS011;13185;50.872;5.306;2022-07-11T15:37:53;1.65;;;1.40;;
25237;SDS011;13185;50.872;5.306;2022-07-11T15:40:18;1.90;;;1.52;;
25237;SDS011;13185;50.872;5.306;2022-07-11T15:42:44;1.23;;;1.13;;